This is the latest recevied weather packets stored in our database for station/object K5GTX. If no packets are shown the sender has not sent any weather packets the latest 1 day(s).
| Time | Temp. | Humidity | Pressure | Rain* | Wind** | Luminosity | Snow |
|---|---|---|---|---|---|---|---|
| 1777995135 | 25.56° C | 99% | 1011 hPa | 0 mm | 4.47 m/s, 232° | 318 W/m² | - |
| 1777994832 | 25.56° C | 99% | 1011.2 hPa | 0 mm | 2.24 m/s, 226° | 93 W/m² | - |
| 1777994529 | 25.56° C | 99% | 1011.2 hPa | 0 mm | 0 m/s | 416 W/m² | - |
| 1777994223 | 25° C | 99% | 1011.3 hPa | 0 mm | 0.45 m/s, 270° | 525 W/m² | - |
| 1777993921 | 25° C | 99% | 1011.6 hPa | 0 mm | 1.34 m/s, 211° | 242 W/m² | - |
| 1777993617 | 25° C | 99% | 1011.3 hPa | 0 mm | 0.89 m/s, 253° | 234 W/m² | - |
| 1777993315 | 25° C | 99% | 1011.5 hPa | 0 mm | 1.79 m/s, 221° | 242 W/m² | - |
| 1777993009 | 24.44° C | 99% | 1011.4 hPa | 0 mm | 1.34 m/s, 206° | 259 W/m² | - |
| 1777992708 | 24.44° C | 99% | 1011.2 hPa | 0 mm | 0.89 m/s, 209° | 274 W/m² | - |
| 1777992405 | 24.44° C | 99% | 1011.3 hPa | 0 mm | 1.79 m/s, 204° | 321 W/m² | - |
| 1777992103 | 24.44° C | 99% | 1011.4 hPa | 0 mm | 0 m/s | 294 W/m² | - |
| 1777991800 | 24.44° C | 99% | 1011.2 hPa | 0 mm | 0.89 m/s, 139° | 229 W/m² | - |
| 1777991497 | 23.89° C | 99% | 1011 hPa | 0 mm | 0 m/s | 224 W/m² | - |
| 1777991194 | 23.89° C | 99% | 1011.2 hPa | 0 mm | 1.34 m/s, 191° | 172 W/m² | - |
| 1777990892 | 23.89° C | 99% | 1011.5 hPa | 0 mm | 0 m/s | 206 W/m² | - |
| 1777990589 | 23.89° C | 99% | 1011.4 hPa | 0 mm | 2.24 m/s, 252° | 79 W/m² | - |
| 1777990286 | 23.33° C | 99% | 1011.4 hPa | 0 mm | 0.45 m/s, 120° | 154 W/m² | - |
| 1777989982 | 23.33° C | 99% | 1011.6 hPa | 0 mm | 4.02 m/s, 241° | 164 W/m² | - |
| 1777989679 | 22.78° C | 99% | 1011.4 hPa | 0 mm | 0.89 m/s, 135° | 139 W/m² | - |
| 1777989375 | 22.78° C | 99% | 1011.6 hPa | 0 mm | 0.89 m/s, 125° | 116 W/m² | - |
| 1777989073 | 22.78° C | 99% | 1011.2 hPa | 0 mm | 0.89 m/s, 184° | 150 W/m² | - |
| 1777988768 | 22.78° C | 99% | 1010.9 hPa | 0 mm | 1.34 m/s, 201° | 117 W/m² | - |
| 1777988466 | 22.78° C | 99% | 1011.1 hPa | 0 mm | 3.13 m/s, 223° | 91 W/m² | - |
| 1777988162 | 22.78° C | 99% | 1011 hPa | 0 mm | 0 m/s | 88 W/m² | - |
| 1777987858 | 22.78° C | 99% | 1011.1 hPa | 0 mm | 1.79 m/s, 290° | 97 W/m² | - |
* Rain latest hour (hover to see other rain measurements)
** Current wind speed in m/s (hover to see current wind gust speed)